Amis Brave — 3FCV2 — position and weather

sailwx.info

Track history (hours):
 
Tides and Currents Weather Stations Pressure Air Temp Water Temp Dewpoint Dewpoint Depression Visibility Wind Speed Wind Dir Waves Ship Positions

Amis Brave

Last reported at 2018-Jun-13 04:02 UTC. Time now 2018-Jun-24 03:42 UTC.
Position N 01°18' E 103°21'.
Warning: this ship's position is 10 days out of date.

Length 200 m; draft 11.5 m.

Type: Cargo ship. MMSI: 355534000.

Date/timePositionNaut miles runAvg speedWind from/ knotsBaromVisibWave heightAir tempDewpointWater temp
2018-Jun-13 04:02N 01°18' E 103°21'010.8
2018-Jun-13 04:00N 01°18' E 103°22'6 9.9
2018-Jun-13 03:25N 01°14' E 103°26'4 9.9
2018-Jun-13 02:59N 01°13' E 103°31'510.4
2018-Jun-13 02:30N 01°12' E 103°35'4 8.2
2018-Jun-13 02:00N 01°12' E 103°39'4 7.7
2018-Jun-13 01:30N 01°14' E 103°43'3 6.0
2018-Jun-13 01:00N 01°17' E 103°45'2 3.7
2018-Jun-13 00:30N 01°18' E 103°43'0 0.3
2018-Jun-13 00:00N 01°18' E 103°43'0 0.0
2018-Jun-12 23:29N 01°18' E 103°43'0 0.0
2018-Jun-12 22:59N 01°18' E 103°43'0 0.0
2018-Jun-12 22:29N 01°18' E 103°43'0 0.0
2018-Jun-12 21:59N 01°18' E 103°43'0 0.0
2018-Jun-12 21:29N 01°18' E 103°43'0 0.0
2018-Jun-12 20:50N 01°18' E 103°43'0 0.0
2018-Jun-12 20:29N 01°18' E 103°43'0 0.0
2018-Jun-12 19:56N 01°18' E 103°43'0 0.0
2018-Jun-12 19:29N 01°18' E 103°43'0 0.0
2018-Jun-12 18:56N 01°18' E 103°43'0 0.0
2018-Jun-12 18:26N 01°18' E 103°43'0 0.0
2018-Jun-12 17:56N 01°18' E 103°43'0 0.0
2018-Jun-12 17:17N 01°18' E 103°43'0 0.0
2018-Jun-12 16:58N 01°18' E 103°43'0 0.0
2018-Jun-12 16:26N 01°18' E 103°43'0 0.0
2018-Jun-12 15:59N 01°18' E 103°43'0 0.0
2018-Jun-12 15:29N 01°18' E 103°43'0 0.0
2018-Jun-12 14:56N 01°18' E 103°43'0 0.0
2018-Jun-12 14:29N 01°18' E 103°43'0 0.0
2018-Jun-12 13:59N 01°18' E 103°43'0 0.0
2018-Jun-12 13:29N 01°18' E 103°43'0 0.0
2018-Jun-12 12:58N 01°18' E 103°43'0 0.0
2018-Jun-12 12:29N 01°18' E 103°43'0 0.0
2018-Jun-12 11:53N 01°18' E 103°43'0 0.0
2018-Jun-12 11:29N 01°18' E 103°43'0 0.0
2018-Jun-12 10:56N 01°18' E 103°43'0 0.0
2018-Jun-12 10:26N 01°18' E 103°43'0 0.0
2018-Jun-12 09:56N 01°18' E 103°43'0 0.0
2018-Jun-12 09:26N 01°18' E 103°43'0 0.0
2018-Jun-12 08:56N 01°18' E 103°43'0 0.0
2018-Jun-12 08:23N 01°18' E 103°43'0 0.0
2018-Jun-12 07:59N 01°18' E 103°43'0 0.0
2018-Jun-12 07:26N 01°18' E 103°43'0 0.0
2018-Jun-12 06:56N 01°18' E 103°43'0 0.0
2018-Jun-12 06:21N 01°18' E 103°43'0 0.0
2018-Jun-12 06:00N 01°18' E 103°43'0 0.0
2018-Jun-12 05:30N 01°18' E 103°43'0 0.0
2018-Jun-12 05:00N 01°18' E 103°43'0 0.0
2018-Jun-12 04:27N 01°18' E 103°43'0 0.0
2018-Jun-12 04:00N 01°18' E 103°43'0 0.0
2018-Jun-12 03:27N 01°18' E 103°43'0 0.0
2018-Jun-12 03:00N 01°18' E 103°43'0 0.0
2018-Jun-12 02:27N 01°18' E 103°43'0 0.0
2018-Jun-12 01:59N 01°18' E 103°43'0 0.0
2018-Jun-12 01:27N 01°18' E 103°43'0 0.0
2018-Jun-12 00:50N 01°18' E 103°43'0 0.0
2018-Jun-12 00:10N 01°18' E 103°43'0 0.4
2018-Jun-12 00:00N 01°18' E 103°43'0 0.8
2018-Jun-11 23:30N 01°18' E 103°43'1 1.8
2018-Jun-11 23:00N 01°17' E 103°44'4 8.9
2018-Jun-11 22:30N 01°14' E 103°47'4 8.5
2018-Jun-11 22:00N 01°12' E 103°51'3 5.8
2018-Jun-11 21:31N 01°13' E 103°54'3 5.9
2018-Jun-11 21:00N 01°14' E 103°57'1 2.9
2018-Jun-11 20:30N 01°15' E 103°58'2 3.4
2018-Jun-11 20:00N 01°15' E 103°60'4 7.1
2018-Jun-11 19:30N 01°16' E 104°03'4 8.8
2018-Jun-11 18:59N 01°17' E 104°08'4 8.7
2018-Jun-11 18:29N 01°17' E 104°12'4 8.0
2018-Jun-11 17:57N 01°18' E 104°16'4 7.7
2018-Jun-11 17:26N 01°19' E 104°20'3 8.0
2018-Jun-11 17:00N 01°22' E 104°22'5 8.5
2018-Jun-11 16:24N 01°25' E 104°26'10 8.8
2018-Jun-11 15:17N 01°31' E 104°34'  
Track history (hours):
 
Tides and Currents Weather Stations Pressure Air Temp Water Temp Dewpoint Dewpoint Depression Visibility Wind Speed Wind Dir Waves Ship Positions

Amis Brave

Last reported at 2018-Jun-13 04:02 UTC. Time now 2018-Jun-24 03:42 UTC.
Position N 01°18' E 103°21'.
Warning: this ship's position is 10 days out of date.

Length 200 m; draft 11.5 m.

Type: Cargo ship. MMSI: 355534000.

Date/timePositionNaut miles runAvg speedWind from/ knotsBaromVisibWave heightAir tempDewpointWater temp
2018-Jun-13 04:02N 01°18' E 103°21'010.8
2018-Jun-13 04:00N 01°18' E 103°22'6 9.9
2018-Jun-13 03:25N 01°14' E 103°26'4 9.9
2018-Jun-13 02:59N 01°13' E 103°31'510.4
2018-Jun-13 02:30N 01°12' E 103°35'4 8.2
2018-Jun-13 02:00N 01°12' E 103°39'4 7.7
2018-Jun-13 01:30N 01°14' E 103°43'3 6.0
2018-Jun-13 01:00N 01°17' E 103°45'2 3.7
2018-Jun-13 00:30N 01°18' E 103°43'0 0.3
2018-Jun-13 00:00N 01°18' E 103°43'0 0.0
2018-Jun-12 23:29N 01°18' E 103°43'0 0.0
2018-Jun-12 22:59N 01°18' E 103°43'0 0.0
2018-Jun-12 22:29N 01°18' E 103°43'0 0.0
2018-Jun-12 21:59N 01°18' E 103°43'0 0.0
2018-Jun-12 21:29N 01°18' E 103°43'0 0.0
2018-Jun-12 20:50N 01°18' E 103°43'0 0.0
2018-Jun-12 20:29N 01°18' E 103°43'0 0.0
2018-Jun-12 19:56N 01°18' E 103°43'0 0.0
2018-Jun-12 19:29N 01°18' E 103°43'0 0.0
2018-Jun-12 18:56N 01°18' E 103°43'0 0.0
2018-Jun-12 18:26N 01°18' E 103°43'0 0.0
2018-Jun-12 17:56N 01°18' E 103°43'0 0.0
2018-Jun-12 17:17N 01°18' E 103°43'0 0.0
2018-Jun-12 16:58N 01°18' E 103°43'0 0.0
2018-Jun-12 16:26N 01°18' E 103°43'0 0.0
2018-Jun-12 15:59N 01°18' E 103°43'0 0.0
2018-Jun-12 15:29N 01°18' E 103°43'0 0.0
2018-Jun-12 14:56N 01°18' E 103°43'0 0.0
2018-Jun-12 14:29N 01°18' E 103°43'0 0.0
2018-Jun-12 13:59N 01°18' E 103°43'0 0.0
2018-Jun-12 13:29N 01°18' E 103°43'0 0.0
2018-Jun-12 12:58N 01°18' E 103°43'0 0.0
2018-Jun-12 12:29N 01°18' E 103°43'0 0.0
2018-Jun-12 11:53N 01°18' E 103°43'0 0.0
2018-Jun-12 11:29N 01°18' E 103°43'0 0.0
2018-Jun-12 10:56N 01°18' E 103°43'0 0.0
2018-Jun-12 10:26N 01°18' E 103°43'0 0.0
2018-Jun-12 09:56N 01°18' E 103°43'0 0.0
2018-Jun-12 09:26N 01°18' E 103°43'0 0.0
2018-Jun-12 08:56N 01°18' E 103°43'0 0.0
2018-Jun-12 08:23N 01°18' E 103°43'0 0.0
2018-Jun-12 07:59N 01°18' E 103°43'0 0.0
2018-Jun-12 07:26N 01°18' E 103°43'0 0.0
2018-Jun-12 06:56N 01°18' E 103°43'0 0.0
2018-Jun-12 06:21N 01°18' E 103°43'0 0.0
2018-Jun-12 06:00N 01°18' E 103°43'0 0.0
2018-Jun-12 05:30N 01°18' E 103°43'0 0.0
2018-Jun-12 05:00N 01°18' E 103°43'0 0.0
2018-Jun-12 04:27N 01°18' E 103°43'0 0.0
2018-Jun-12 04:00N 01°18' E 103°43'0 0.0
2018-Jun-12 03:27N 01°18' E 103°43'0 0.0
2018-Jun-12 03:00N 01°18' E 103°43'0 0.0
2018-Jun-12 02:27N 01°18' E 103°43'0 0.0
2018-Jun-12 01:59N 01°18' E 103°43'0 0.0
2018-Jun-12 01:27N 01°18' E 103°43'0 0.0
2018-Jun-12 00:50N 01°18' E 103°43'0 0.0
2018-Jun-12 00:10N 01°18' E 103°43'0 0.4
2018-Jun-12 00:00N 01°18' E 103°43'0 0.8
2018-Jun-11 23:30N 01°18' E 103°43'1 1.8
2018-Jun-11 23:00N 01°17' E 103°44'4 8.9
2018-Jun-11 22:30N 01°14' E 103°47'4 8.5
2018-Jun-11 22:00N 01°12' E 103°51'3 5.8
2018-Jun-11 21:31N 01°13' E 103°54'3 5.9
2018-Jun-11 21:00N 01°14' E 103°57'1 2.9
2018-Jun-11 20:30N 01°15' E 103°58'2 3.4
2018-Jun-11 20:00N 01°15' E 103°60'4 7.1
2018-Jun-11 19:30N 01°16' E 104°03'4 8.8
2018-Jun-11 18:59N 01°17' E 104°08'4 8.7
2018-Jun-11 18:29N 01°17' E 104°12'4 8.0
2018-Jun-11 17:57N 01°18' E 104°16'4 7.7
2018-Jun-11 17:26N 01°19' E 104°20'3 8.0
2018-Jun-11 17:00N 01°22' E 104°22'5 8.5
2018-Jun-11 16:24N 01°25' E 104°26'10 8.8
2018-Jun-11 15:17N 01°31' E 104°34'  

Dump ship's entire track history